createdAt,value
2022-08-05T00:02:07.354Z,24.28
2022-08-05T00:06:04.978Z,24.26
2022-08-05T00:09:12.752Z,24.23
2022-08-05T00:12:55.855Z,24.23
2022-08-05T00:16:18.797Z,24.17
2022-08-05T00:20:02.786Z,24.14
2022-08-05T00:23:23.754Z,24.12
2022-08-05T00:26:58.609Z,24.10
2022-08-05T00:30:20.833Z,24.11
2022-08-05T00:34:54.890Z,24.09
2022-08-05T00:37:35.809Z,24.09
2022-08-05T00:41:13.765Z,24.12
2022-08-05T00:44:37.836Z,24.14
2022-08-05T00:48:05.146Z,24.16
2022-08-05T00:51:50.994Z,24.19
2022-08-05T00:55:08.776Z,24.21
2022-08-05T00:58:30.767Z,24.26
2022-08-05T01:01:52.022Z,24.31
2022-08-05T01:05:12.778Z,24.37
2022-08-05T01:08:43.081Z,24.43
2022-08-05T01:12:09.364Z,24.50
2022-08-05T01:15:47.868Z,24.53
2022-08-05T01:19:14.380Z,24.54
2022-08-05T01:22:40.841Z,24.50
2022-08-05T01:26:49.811Z,24.40
2022-08-05T01:30:17.679Z,24.25
2022-08-05T01:33:39.827Z,24.14
2022-08-05T01:37:08.960Z,24.00
2022-08-05T01:40:32.814Z,23.87
2022-08-05T01:43:54.806Z,23.78
2022-08-05T01:47:16.913Z,23.71
2022-08-05T01:50:53.873Z,23.67
2022-08-05T01:54:17.979Z,23.67
2022-08-05T01:58:13.736Z,23.69
2022-08-05T02:01:25.518Z,23.71
2022-08-05T02:04:52.125Z,23.72
2022-08-05T02:08:12.858Z,23.76
2022-08-05T02:12:02.817Z,23.90
2022-08-05T02:15:33.517Z,24.05
2022-08-05T02:19:01.808Z,24.14
2022-08-05T02:22:43.806Z,24.22
2022-08-05T02:26:05.833Z,24.34
2022-08-05T02:29:59.622Z,24.42
2022-08-05T02:33:13.845Z,24.44
2022-08-05T02:36:45.823Z,24.42
2022-08-05T02:40:09.602Z,24.39
2022-08-05T02:43:34.460Z,24.40
2022-08-05T02:47:00.762Z,24.43
2022-08-05T02:50:22.814Z,24.48
2022-08-05T02:53:45.849Z,24.53
2022-08-05T02:58:09.288Z,24.61
2022-08-05T03:00:51.814Z,24.72
2022-08-05T03:04:15.895Z,24.76
2022-08-05T03:08:01.056Z,24.79
2022-08-05T03:11:56.954Z,24.86
2022-08-05T03:15:23.613Z,24.96
2022-08-05T03:18:44.840Z,25.04
2022-08-05T03:22:16.556Z,25.11
2022-08-05T03:26:03.808Z,25.16
2022-08-05T03:29:17.283Z,25.16
2022-08-05T03:32:38.848Z,25.20
2022-08-05T03:35:59.845Z,25.28
2022-08-05T03:39:27.720Z,25.35
2022-08-05T03:42:52.526Z,25.45
2022-08-05T03:46:13.856Z,25.46
2022-08-05T03:49:51.323Z,25.56
2022-08-05T03:55:50.310Z,25.65
2022-08-05T03:57:00.623Z,25.74
2022-08-05T04:00:24.842Z,25.80
2022-08-05T04:04:09.979Z,25.88
2022-08-05T04:07:33.061Z,25.89
2022-08-05T04:10:53.855Z,25.88
2022-08-05T04:14:17.940Z,25.94
2022-08-05T04:17:56.199Z,26.03
2022-08-05T04:22:05.162Z,26.26
2022-08-05T04:25:00.856Z,26.34
2022-08-05T04:28:30.646Z,26.44
2022-08-05T04:31:52.851Z,26.49
2022-08-05T04:35:19.725Z,26.57
2022-08-05T04:38:40.894Z,26.67
2022-08-05T04:42:03.661Z,26.74
2022-08-05T04:45:47.825Z,26.83
2022-08-05T04:49:05.859Z,26.93
2022-08-05T04:52:34.046Z,27.00
2022-08-05T04:56:33.548Z,27.03
2022-08-05T04:59:39.243Z,27.19
2022-08-05T05:03:03.753Z,27.37
2022-08-05T05:06:40.723Z,27.57
2022-08-05T05:10:06.368Z,27.73
2022-08-05T05:13:24.903Z,27.81
2022-08-05T05:16:45.896Z,28.00
2022-08-05T05:20:10.883Z,28.19
2022-08-05T05:23:39.285Z,28.30
2022-08-05T05:27:12.973Z,28.56
2022-08-05T05:30:37.870Z,28.73
2022-08-05T05:34:02.524Z,28.83
2022-08-05T05:37:25.860Z,29.00
2022-08-05T05:40:57.864Z,29.23
2022-08-05T05:44:36.338Z,29.44
2022-08-05T05:48:06.061Z,29.51
2022-08-05T05:51:49.714Z,29.68
2022-08-05T05:55:15.876Z,29.94
2022-08-05T05:58:36.889Z,30.17
2022-08-05T06:02:01.862Z,30.28
2022-08-05T06:05:17.259Z,30.27
2022-08-05T06:08:39.732Z,30.44
2022-08-05T06:12:02.463Z,30.53
2022-08-05T06:15:24.497Z,30.64
2022-08-05T06:19:08.058Z,30.69
2022-08-05T06:22:37.921Z,30.56
2022-08-05T06:26:12.835Z,30.41
2022-08-05T06:29:52.097Z,30.35
2022-08-05T06:33:19.376Z,30.23
2022-08-05T06:36:57.954Z,30.01
2022-08-05T06:40:21.406Z,29.87
2022-08-05T06:43:57.661Z,29.67
2022-08-05T06:48:11.646Z,29.54
2022-08-05T06:51:00.906Z,29.54
2022-08-05T06:54:21.926Z,29.57
2022-08-05T06:57:57.257Z,29.58
2022-08-05T07:01:27.651Z,29.55
2022-08-05T07:04:52.916Z,29.52
2022-08-05T07:08:13.907Z,29.46
2022-08-05T07:11:39.944Z,29.37
2022-08-05T07:15:11.913Z,29.31
2022-08-05T07:20:10.605Z,29.33
2022-08-05T07:23:06.503Z,29.34
2022-08-05T07:26:26.914Z,29.27
2022-08-05T07:30:27.873Z,29.25
2022-08-05T07:33:37.045Z,29.30
2022-08-05T07:36:57.889Z,29.41
2022-08-05T07:40:32.125Z,29.43
2022-08-05T07:43:56.402Z,29.44
2022-08-05T07:47:17.966Z,29.50
2022-08-05T07:50:38.912Z,29.57
2022-08-05T07:53:59.923Z,29.63
2022-08-05T07:57:51.176Z,29.75
2022-08-05T08:01:06.186Z,29.85
2022-08-05T08:04:37.565Z,29.87
2022-08-05T08:07:59.591Z,29.92
2022-08-05T08:11:27.386Z,29.94
2022-08-05T08:15:02.715Z,29.87
2022-08-05T08:18:23.944Z,29.84
2022-08-05T08:21:44.922Z,29.83
2022-08-05T08:25:16.479Z,29.92
2022-08-05T08:28:55.302Z,30.04
2022-08-05T08:32:28.221Z,30.13
2022-08-05T08:35:52.796Z,30.16
2022-08-05T08:39:29.971Z,30.19
2022-08-05T08:42:52.554Z,30.25
2022-08-05T08:46:16.890Z,30.35
2022-08-05T08:50:22.470Z,30.41
2022-08-05T08:53:20.962Z,30.42
2022-08-05T08:56:47.627Z,30.47
2022-08-05T09:00:11.960Z,30.51
2022-08-05T09:03:40.355Z,30.47
2022-08-05T09:07:01.936Z,30.57
2022-08-05T09:10:32.951Z,30.65
2022-08-05T09:14:09.738Z,30.54
2022-08-05T09:17:41.075Z,30.56
2022-08-05T09:20:57.966Z,30.55
2022-08-05T09:24:21.972Z,30.62
2022-08-05T09:28:05.388Z,30.77
2022-08-05T09:32:39.108Z,30.78
2022-08-05T09:35:10.947Z,30.85
2022-08-05T09:38:47.955Z,30.93
2022-08-05T09:42:24.557Z,31.08
2022-08-05T09:46:06.857Z,31.24
2022-08-05T09:50:00.444Z,31.30
2022-08-05T09:53:22.750Z,31.34
2022-08-05T09:56:52.373Z,31.27
2022-08-05T10:00:20.954Z,31.23
2022-08-05T10:03:59.557Z,31.39
2022-08-05T10:08:11.196Z,31.61
2022-08-05T10:11:02.971Z,31.85
2022-08-05T10:14:45.000Z,32.09
2022-08-05T10:18:22.997Z,32.12
2022-08-05T10:21:43.979Z,32.05
2022-08-05T10:25:06.011Z,32.10
2022-08-05T10:28:30.534Z,32.27
2022-08-05T10:32:52.206Z,32.34
2022-08-05T10:35:33.638Z,32.48
2022-08-05T10:39:05.292Z,32.83
2022-08-05T10:42:36.968Z,33.35
2022-08-05T10:46:10.534Z,33.80
2022-08-05T10:49:48.956Z,34.20
2022-08-05T10:53:17.585Z,34.25
2022-08-05T10:56:43.974Z,34.14
2022-08-05T11:00:23.095Z,34.01
2022-08-05T11:03:44.061Z,34.01
2022-08-05T11:07:12.989Z,34.22
2022-08-05T11:10:50.258Z,34.30
2022-08-05T11:14:25.590Z,34.13
2022-08-05T11:18:03.912Z,33.84
2022-08-05T11:21:50.979Z,33.70
2022-08-05T11:26:05.970Z,33.74
2022-08-05T11:29:47.965Z,33.77
2022-08-05T11:33:46.503Z,33.92
2022-08-05T11:38:29.935Z,34.13
2022-08-05T11:41:34.702Z,34.27
2022-08-05T11:44:54.370Z,34.18
2022-08-05T11:48:21.970Z,34.27
2022-08-05T11:51:48.439Z,34.57
2022-08-05T11:55:12.598Z,34.57
2022-08-05T11:58:53.134Z,34.40
2022-08-05T12:02:30.420Z,34.33
2022-08-05T12:05:52.997Z,34.27
2022-08-05T12:09:20.060Z,34.29
2022-08-05T12:12:58.487Z,34.30
2022-08-05T12:16:31.201Z,34.23
2022-08-05T12:20:27.121Z,34.25
2022-08-05T12:23:51.040Z,34.32
2022-08-05T12:27:25.011Z,34.45
2022-08-05T12:30:52.010Z,34.99
2022-08-05T12:34:20.716Z,35.26
2022-08-05T12:37:43.019Z,35.56
2022-08-05T12:41:06.850Z,35.94
2022-08-05T12:44:33.837Z,36.40
2022-08-05T12:48:17.028Z,37.64
2022-08-05T12:52:12.472Z,39.88
2022-08-05T12:55:32.656Z,40.73
2022-08-05T12:59:00.955Z,40.87
2022-08-05T13:02:30.266Z,41.96
2022-08-05T13:05:50.994Z,41.66
2022-08-05T13:09:12.685Z,40.84
2022-08-05T13:12:37.006Z,39.62
2022-08-05T13:16:12.065Z,39.11
2022-08-05T13:19:40.471Z,39.11
2022-08-05T13:23:14.011Z,39.23
2022-08-05T13:26:37.053Z,39.57
2022-08-05T13:30:32.863Z,40.89
2022-08-05T13:34:22.502Z,42.21
2022-08-05T13:37:34.634Z,43.25
2022-08-05T13:40:56.027Z,44.08
2022-08-05T13:44:17.058Z,44.49
2022-08-05T13:48:09.691Z,44.93
2022-08-05T13:51:24.078Z,45.40
2022-08-05T13:54:53.366Z,45.43
2022-08-05T13:58:14.019Z,45.67
2022-08-05T14:01:59.122Z,46.10
2022-08-05T14:05:48.154Z,46.43
2022-08-05T14:09:03.004Z,46.68
2022-08-05T14:12:32.822Z,46.82
2022-08-05T14:16:06.890Z,46.95
2022-08-05T14:19:32.006Z,46.94
2022-08-05T14:23:13.020Z,47.30
2022-08-05T14:26:38.984Z,47.80
2022-08-05T14:30:20.395Z,47.90
2022-08-05T14:33:59.381Z,47.92
2022-08-05T14:37:21.020Z,47.79
2022-08-05T14:40:44.055Z,47.95
2022-08-05T14:44:19.901Z,48.11
2022-08-05T14:48:04.857Z,47.56
2022-08-05T14:51:22.031Z,47.19
2022-08-05T14:54:53.108Z,47.37
2022-08-05T14:58:14.216Z,47.88
2022-08-05T15:01:47.048Z,48.34
2022-08-05T15:05:13.431Z,48.52
2022-08-05T15:08:58.104Z,48.43
2022-08-05T15:12:16.763Z,48.43
2022-08-05T15:15:55.842Z,48.36
2022-08-05T15:19:23.745Z,47.98
2022-08-05T15:22:46.030Z,47.89
2022-08-05T15:26:13.047Z,47.60
2022-08-05T15:29:34.023Z,46.87
2022-08-05T15:33:03.072Z,46.38
2022-08-05T15:36:25.713Z,46.41
2022-08-05T15:40:59.098Z,46.56
2022-08-05T15:43:28.098Z,46.40
2022-08-05T15:46:49.079Z,45.97
2022-08-05T15:50:15.421Z,45.12
2022-08-05T15:53:38.146Z,44.09
2022-08-05T15:57:12.046Z,43.92
2022-08-05T16:00:50.738Z,43.25
2022-08-05T16:04:15.036Z,40.99
2022-08-05T16:07:39.078Z,39.02
2022-08-05T16:11:07.087Z,38.38
2022-08-05T16:14:29.038Z,38.20
2022-08-05T16:17:57.776Z,37.00
2022-08-05T16:21:19.058Z,36.08
2022-08-05T16:24:52.001Z,35.18
2022-08-05T16:28:16.021Z,34.34
2022-08-05T16:31:56.968Z,33.77
2022-08-05T16:35:18.078Z,33.34
2022-08-05T16:38:39.127Z,32.96
2022-08-05T16:42:15.770Z,32.60
2022-08-05T16:46:06.411Z,32.26
2022-08-05T16:49:20.037Z,31.98
2022-08-05T16:52:45.944Z,31.67
2022-08-05T16:56:07.112Z,31.37
2022-08-05T16:59:30.558Z,31.10
2022-08-05T17:02:52.085Z,30.84
2022-08-05T17:06:13.047Z,30.61
2022-08-05T17:09:56.055Z,30.35
2022-08-05T17:13:21.397Z,30.10
2022-08-05T17:16:59.114Z,29.85
2022-08-05T17:20:24.989Z,29.64
2022-08-05T17:24:05.535Z,29.46
2022-08-05T17:27:27.221Z,29.27
2022-08-05T17:30:54.110Z,29.14
2022-08-05T17:34:17.982Z,29.01
2022-08-05T17:37:41.513Z,28.82
2022-08-05T17:41:06.064Z,28.60
2022-08-05T17:44:32.523Z,28.47
2022-08-05T17:47:55.700Z,28.33
2022-08-05T17:51:21.425Z,28.19
2022-08-05T17:54:44.138Z,28.12
2022-08-05T17:58:07.212Z,28.09
2022-08-05T18:01:24.100Z,28.03
2022-08-05T18:04:50.977Z,27.96
2022-08-05T18:08:14.167Z,27.95
2022-08-05T18:11:36.111Z,27.85
2022-08-05T18:14:58.075Z,27.71
2022-08-05T18:18:19.093Z,27.59
2022-08-05T18:22:07.733Z,27.49
2022-08-05T18:25:14.112Z,27.39
2022-08-05T18:28:38.117Z,27.31
2022-08-05T18:32:02.086Z,27.19
2022-08-05T18:35:49.718Z,27.09
2022-08-05T18:39:06.583Z,26.98
2022-08-05T18:42:31.248Z,26.88
2022-08-05T18:45:52.142Z,26.82
2022-08-05T18:49:44.618Z,26.80
2022-08-05T18:53:22.169Z,26.75
2022-08-05T18:56:51.076Z,26.68
2022-08-05T19:00:20.618Z,26.57
2022-08-05T19:03:52.868Z,26.47
2022-08-05T19:07:15.121Z,26.39
2022-08-05T19:10:37.527Z,26.35
2022-08-05T19:14:00.919Z,26.29
2022-08-05T19:17:28.480Z,26.27
2022-08-05T19:21:08.242Z,26.21
2022-08-05T19:24:34.710Z,26.12
2022-08-05T19:27:56.129Z,26.03
2022-08-05T19:31:26.148Z,25.99
2022-08-05T19:34:54.736Z,25.92
2022-08-05T19:38:16.115Z,25.89
2022-08-05T19:42:06.215Z,25.84
2022-08-05T19:45:19.109Z,25.79
2022-08-05T19:48:41.141Z,25.72
2022-08-05T19:52:09.219Z,25.67
2022-08-05T19:56:13.588Z,25.66
2022-08-05T19:59:55.053Z,25.64
2022-08-05T20:03:01.123Z,25.63
2022-08-05T20:06:29.675Z,25.66
2022-08-05T20:09:53.795Z,25.67
2022-08-05T20:13:16.130Z,25.68
2022-08-05T20:16:37.164Z,25.62
2022-08-05T20:19:58.170Z,25.55
2022-08-05T20:23:19.121Z,25.48
2022-08-05T20:26:41.387Z,25.49
2022-08-05T20:30:03.203Z,25.47
2022-08-05T20:33:25.161Z,25.46
2022-08-05T20:36:46.129Z,25.44
2022-08-05T20:40:07.240Z,25.38
2022-08-05T20:43:39.814Z,25.34
2022-08-05T20:47:04.140Z,25.33
2022-08-05T20:50:25.113Z,25.30
2022-08-05T20:53:56.369Z,25.29
2022-08-05T20:57:42.003Z,25.23
2022-08-05T21:00:59.275Z,25.24
2022-08-05T21:04:20.164Z,25.22
2022-08-05T21:07:50.976Z,25.18
2022-08-05T21:12:06.525Z,25.12
2022-08-05T21:14:56.152Z,25.12
2022-08-05T21:18:19.174Z,25.05
2022-08-05T21:21:44.285Z,24.96
2022-08-05T21:25:05.921Z,24.84
2022-08-05T21:28:30.620Z,24.80
2022-08-05T21:31:52.185Z,24.82
2022-08-05T21:35:18.273Z,24.83
2022-08-05T21:38:50.149Z,24.76
2022-08-05T21:42:31.095Z,24.74
2022-08-05T21:45:57.381Z,24.72
2022-08-05T21:49:58.498Z,24.72
2022-08-05T21:53:04.437Z,24.67
2022-08-05T21:56:29.176Z,24.60
2022-08-05T22:00:05.984Z,24.51
2022-08-05T22:03:48.862Z,24.51
2022-08-05T22:07:08.159Z,24.47
2022-08-05T22:10:33.227Z,24.44
2022-08-05T22:14:31.327Z,24.35
2022-08-05T22:17:40.127Z,24.27
2022-08-05T22:21:19.535Z,24.19
2022-08-05T22:24:58.225Z,24.15
2022-08-05T22:28:21.171Z,24.12
2022-08-05T22:31:44.404Z,24.07
2022-08-05T22:35:05.224Z,24.04
2022-08-05T22:38:27.155Z,24.01
2022-08-05T22:42:09.665Z,23.95
2022-08-05T22:45:33.175Z,23.95
2022-08-05T22:48:55.220Z,23.90
2022-08-05T22:52:30.246Z,23.86
2022-08-05T22:55:56.953Z,23.85
2022-08-05T22:59:44.049Z,23.83
2022-08-05T23:03:00.336Z,23.78
2022-08-05T23:06:26.388Z,23.74
2022-08-05T23:09:57.037Z,23.72
2022-08-05T23:13:20.188Z,23.77
2022-08-05T23:16:59.175Z,23.82
2022-08-05T23:20:24.531Z,23.86
2022-08-05T23:23:46.224Z,23.88
2022-08-05T23:27:07.194Z,23.88
2022-08-05T23:30:31.354Z,23.87
2022-08-05T23:34:02.857Z,23.90
2022-08-05T23:37:27.228Z,23.89
2022-08-05T23:40:57.202Z,23.91
2022-08-05T23:44:19.768Z,23.85
2022-08-05T23:47:47.931Z,23.79
2022-08-05T23:51:09.187Z,23.74
2022-08-05T23:54:33.946Z,23.67
2022-08-05T23:57:57.207Z,23.66
